Time;durP1;ratioP1;P1;durP2;ratioP2;P2;SDS_P1;SDS_P2;PMS_P1;PMS_P2;Temp;Humidity;BMP_temperature;BMP_pressure;BME280_temperature;BME280_humidity;BME280_pressure;Samples;Min_cycle;Max_cycle;Signal;HPM_P1;HPM_P2
2023/08/02 00:00:36;;;;;;;3.65;2.03;;;;;;;12.77;100.00;99548.25;4917361;29;20481;-59
2023/08/02 00:03:03;;;;;;;4.45;2.13;;;;;;;12.71;100.00;99548.22;4916584;29;20419;-59
2023/08/02 00:05:30;;;;;;;6.43;2.13;;;;;;;12.74;100.00;99542.44;4917148;29;20040;-58
2023/08/02 00:07:57;;;;;;;4.18;2.00;;;;;;;12.63;100.00;99542.00;4917718;29;20493;-58
2023/08/02 00:10:24;;;;;;;7.05;2.50;;;;;;;12.62;100.00;99534.09;4917699;29;20048;-60
2023/08/02 00:12:51;;;;;;;6.45;2.15;;;;;;;12.60;100.00;99533.50;4916711;29;20083;-58
2023/08/02 00:15:21;;;;;;;7.85;2.35;;;;;;;12.65;100.00;99534.53;4917161;29;20082;-58
2023/08/02 00:17:47;;;;;;;7.55;2.30;;;;;;;12.71;100.00;99534.75;4916212;29;20048;-60
2023/08/02 00:20:14;;;;;;;11.93;4.00;;;;;;;12.69;100.00;99534.94;4917196;29;20145;-57
2023/08/02 00:22:41;;;;;;;6.65;3.15;;;;;;;12.67;100.00;99537.03;4916839;29;20048;-58
2023/08/02 00:25:08;;;;;;;7.03;3.05;;;;;;;12.65;100.00;99534.53;4917063;29;20048;-57
2023/08/02 00:27:35;;;;;;;7.95;2.83;;;;;;;12.58;100.00;99540.91;4916854;29;20068;-58
2023/08/02 00:30:01;;;;;;;5.80;2.47;;;;;;;12.51;100.00;99543.59;4916615;29;20492;-58
2023/08/02 00:32:28;;;;;;;6.75;2.88;;;;;;;12.47;100.00;99546.88;4917123;29;20484;-59
2023/08/02 00:34:54;;;;;;;5.85;2.28;;;;;;;12.40;100.00;99545.00;4917014;29;20067;-59
2023/08/02 00:37:22;;;;;;;10.07;2.20;;;;;;;12.37;100.00;99548.09;4916784;29;20043;-60
2023/08/02 00:39:52;;;;;;;9.38;2.28;;;;;;;12.33;100.00;99552.22;4916551;29;20504;-57
2023/08/02 00:42:19;;;;;;;7.88;2.60;;;;;;;12.31;100.00;99553.44;4916116;29;20056;-58
2023/08/02 00:44:46;;;;;;;6.53;2.45;;;;;;;12.36;100.00;99551.81;4916594;29;20112;-58
2023/08/02 00:47:13;;;;;;;5.88;2.80;;;;;;;12.40;100.00;99554.94;4916929;29;20424;-58
2023/08/02 00:49:41;;;;;;;9.68;2.63;;;;;;;12.34;100.00;99553.88;4916362;29;20044;-57
2023/08/02 00:52:07;;;;;;;7.20;3.05;;;;;;;12.31;100.00;99554.25;4916724;29;20101;-58
2023/08/02 00:54:34;;;;;;;7.45;2.80;;;;;;;12.37;100.00;99558.84;4915972;29;20075;-59
2023/08/02 00:57:01;;;;;;;7.20;2.33;;;;;;;12.37;100.00;99555.34;4916468;29;20064;-58
2023/08/02 00:59:28;;;;;;;4.78;2.17;;;;;;;12.30;100.00;99559.84;4917007;29;20048;-58
2023/08/02 01:01:55;;;;;;;7.97;2.53;;;;;;;12.28;100.00;99554.69;4916296;29;20044;-58
2023/08/02 01:04:23;;;;;;;7.28;2.42;;;;;;;12.29;100.00;99555.50;4916311;29;20557;-58
2023/08/02 01:07:27;;;;;;;6.05;2.55;;;;;;;12.30;100.00;99566.06;4916241;29;20048;-58
2023/08/02 01:10:17;;;;;;;8.68;2.65;;;;;;;12.36;100.00;99562.56;4915767;29;20055;-58
2023/08/02 01:12:46;;;;;;;8.15;2.55;;;;;;;12.41;100.00;99556.59;4915044;29;20122;-58
2023/08/02 01:15:14;;;;;;;5.43;2.10;;;;;;;12.40;100.00;99558.44;4915313;29;20099;-59
2023/08/02 01:17:43;;;;;;;8.85;3.05;;;;;;;12.43;100.00;99562.59;4915219;29;20068;-58
2023/08/02 01:20:10;;;;;;;10.00;2.75;;;;;;;12.41;100.00;99552.03;4915514;29;20067;-59
2023/08/02 01:22:36;;;;;;;6.60;2.67;;;;;;;12.43;100.00;99551.03;4914878;29;20496;-58
2023/08/02 01:25:05;;;;;;;6.72;2.20;;;;;;;12.37;100.00;99552.63;4915210;29;20473;-58
2023/08/02 01:27:35;;;;;;;11.18;3.17;;;;;;;12.44;100.00;99564.25;4915500;29;20107;-59
2023/08/02 01:30:07;;;;;;;8.13;2.80;;;;;;;12.45;100.00;99554.31;4914853;29;20103;-58
2023/08/02 01:32:33;;;;;;;9.40;2.78;;;;;;;12.49;100.00;99556.44;4914852;29;20052;-59
2023/08/02 01:35:01;;;;;;;4.28;2.13;;;;;;;12.40;100.00;99563.81;4914794;29;20143;-58
2023/08/02 01:37:27;;;;;;;6.88;3.08;;;;;;;12.41;100.00;99560.09;4915029;29;20052;-58
2023/08/02 01:39:54;;;;;;;7.53;2.45;;;;;;;12.35;100.00;99554.72;4915479;29;20099;-58
2023/08/02 01:42:20;;;;;;;9.10;3.08;;;;;;;12.41;100.00;99552.03;4914611;29;20076;-59
2023/08/02 01:44:47;;;;;;;9.68;2.80;;;;;;;12.36;100.00;99551.00;4914631;29;20055;-58
2023/08/02 01:47:17;;;;;;;14.43;3.60;;;;;;;12.41;100.00;99537.75;4914987;29;20048;-57
2023/08/02 01:49:44;;;;;;;6.07;2.42;;;;;;;12.43;100.00;99540.25;4914627;29;20051;-57
2023/08/02 01:52:10;;;;;;;8.02;2.70;;;;;;;12.43;100.00;99543.78;4914624;29;20056;-58
2023/08/02 01:54:37;;;;;;;5.43;2.20;;;;;;;12.43;100.00;99545.66;4913535;29;20052;-58
2023/08/02 01:57:04;;;;;;;13.70;3.22;;;;;;;12.46;100.00;99547.94;4914869;29;20124;-58
2023/08/02 01:59:30;;;;;;;6.70;2.65;;;;;;;12.41;100.00;99543.13;4914796;29;20108;-58
2023/08/02 02:01:56;;;;;;;5.85;2.50;;;;;;;12.43;100.00;99556.41;4913740;29;20414;-58
2023/08/02 02:04:23;;;;;;;8.70;2.90;;;;;;;12.38;100.00;99544.38;4915530;29;20055;-58
2023/08/02 02:06:50;;;;;;;6.85;2.53;;;;;;;12.39;100.00;99550.59;4914174;29;20068;-57
2023/08/02 02:09:16;;;;;;;6.07;2.50;;;;;;;12.41;100.00;99553.91;4914334;29;20060;-57
2023/08/02 02:11:43;;;;;;;10.65;2.70;;;;;;;12.35;100.00;99549.34;4914149;29;20052;-57
2023/08/02 02:14:09;;;;;;;5.35;2.42;;;;;;;12.35;100.00;99550.16;4913941;29;20484;-57
2023/08/02 02:16:36;;;;;;;8.55;3.67;;;;;;;12.38;100.00;99549.78;4913755;29;20071;-58
2023/08/02 02:19:02;;;;;;;8.07;2.67;;;;;;;12.40;100.00;99552.25;4914296;29;20460;-58
2023/08/02 02:21:29;;;;;;;9.95;2.72;;;;;;;12.36;100.00;99554.50;4914019;29;20051;-57
2023/08/02 02:23:56;;;;;;;6.93;2.70;;;;;;;12.37;100.00;99547.25;4914427;29;20055;-60
2023/08/02 02:26:26;;;;;;;9.23;2.65;;;;;;;12.27;100.00;99552.19;4914941;29;20105;-58
2023/08/02 02:28:53;;;;;;;8.65;2.95;;;;;;;12.27;100.00;99549.50;4914594;29;20115;-57
2023/08/02 02:31:19;;;;;;;11.15;3.03;;;;;;;12.25;100.00;99548.88;4914303;29;20099;-58
2023/08/02 02:33:46;;;;;;;6.25;2.10;;;;;;;12.22;100.00;99549.28;4913679;29;21580;-57
2023/08/02 02:36:12;;;;;;;8.48;2.63;;;;;;;12.25;100.00;99549.72;4914119;29;20052;-57
2023/08/02 02:38:39;;;;;;;6.05;2.47;;;;;;;12.23;100.00;99541.00;4913653;29;20076;-58
2023/08/02 02:41:05;;;;;;;5.30;2.85;;;;;;;12.30;100.00;99547.22;4912999;29;20123;-58
2023/08/02 02:43:32;;;;;;;6.22;2.72;;;;;;;12.34;100.00;99537.72;4913706;29;20048;-59
2023/08/02 02:45:58;;;;;;;9.18;3.00;;;;;;;12.30;100.00;99547.22;4913310;29;20052;-59
2023/08/02 02:48:25;;;;;;;6.97;2.33;;;;;;;12.33;100.00;99548.69;4914416;29;20052;-60
2023/08/02 02:50:51;;;;;;;5.55;2.70;;;;;;;12.24;100.00;99539.97;4914426;29;20055;-59
2023/08/02 02:53:20;;;;;;;8.90;2.90;;;;;;;12.25;100.00;99530.06;4913431;29;20132;-58
2023/08/02 02:55:47;;;;;;;7.80;2.78;;;;;;;12.25;100.00;99538.13;4913234;29;20124;-58
2023/08/02 02:58:13;;;;;;;6.22;2.53;;;;;;;12.18;100.00;99530.03;4914187;29;20044;-58
2023/08/02 03:00:40;;;;;;;6.72;2.70;;;;;;;12.14;100.00;99539.50;4914290;29;20492;-58
2023/08/02 03:03:06;;;;;;;8.35;2.47;;;;;;;12.16;100.00;99540.97;4913710;29;20052;-58
2023/08/02 03:05:33;;;;;;;9.40;2.92;;;;;;;12.14;100.00;99537.66;4913260;29;20044;-58
2023/08/02 03:08:00;;;;;;;5.18;2.45;;;;;;;12.20;100.00;99540.56;4913523;29;20090;-58
2023/08/02 03:10:26;;;;;;;10.75;2.92;;;;;;;12.20;100.00;99541.41;4914348;29;20099;-59
2023/08/02 03:12:53;;;;;;;5.63;3.00;;;;;;;12.19;100.00;99542.44;4913872;29;20044;-59
2023/08/02 03:15:19;;;;;;;8.30;3.20;;;;;;;12.11;100.00;99545.28;4912862;29;20048;-58
2023/08/02 03:17:46;;;;;;;6.57;2.42;;;;;;;12.09;100.00;99547.34;4913103;29;20485;-58
2023/08/02 03:20:12;;;;;;;9.77;2.58;;;;;;;12.11;100.00;99547.97;4913349;29;20051;-59
2023/08/02 03:22:39;;;;;;;5.93;2.35;;;;;;;12.07;100.00;99552.06;4913375;29;20409;-58
2023/08/02 03:25:05;;;;;;;7.57;2.75;;;;;;;12.01;100.00;99547.50;4896769;29;20583;-58
2023/08/02 03:27:32;;;;;;;8.38;2.75;;;;;;;12.05;100.00;99549.59;4912979;29;20124;-58
2023/08/02 03:29:59;;;;;;;5.57;2.53;;;;;;;12.02;100.00;99554.53;4912448;29;20051;-58
2023/08/02 03:32:26;;;;;;;11.77;2.85;;;;;;;12.06;100.00;99548.56;4913342;29;20075;-58
2023/08/02 03:34:52;;;;;;;6.40;2.65;;;;;;;12.00;100.00;99552.03;4913108;29;20507;-58
2023/08/02 03:37:19;;;;;;;11.32;3.58;;;;;;;12.04;100.00;99547.13;4913170;29;20048;-58
2023/08/02 03:39:45;;;;;;;7.20;2.67;;;;;;;12.06;100.00;99550.44;4896346;29;20100;-58
2023/08/02 03:42:12;;;;;;;5.60;2.92;;;;;;;12.04;100.00;99553.31;4913511;29;20107;-58
2023/08/02 03:44:38;;;;;;;7.88;3.63;;;;;;;12.03;100.00;99551.63;4912928;29;20488;-58
2023/08/02 03:47:05;;;;;;;11.45;2.83;;;;;;;12.08;100.00;99553.75;4913005;29;20428;-58
2023/08/02 03:49:32;;;;;;;6.72;3.05;;;;;;;12.07;100.00;99557.44;4913215;29;20115;-59
2023/08/02 03:51:59;;;;;;;9.02;3.25;;;;;;;12.08;100.00;99551.06;4912995;29;20048;-58
2023/08/02 03:54:26;;;;;;;6.18;3.00;;;;;;;12.09;100.00;99558.91;4913242;29;20048;-59
2023/08/02 03:56:52;;;;;;;8.43;3.53;;;;;;;12.07;100.00;99547.56;4913289;29;20044;-58
2023/08/02 03:59:19;;;;;;;8.13;3.15;;;;;;;12.14;100.00;99552.94;4913345;29;20048;-58
2023/08/02 04:01:45;;;;;;;10.32;4.13;;;;;;;12.03;100.00;99548.13;4913102;29;20417;-58
2023/08/02 04:04:12;;;;;;;13.02;3.95;;;;;;;12.05;100.00;99546.09;4913154;29;20419;-58
2023/08/02 04:06:39;;;;;;;7.53;2.97;;;;;;;12.10;100.00;99552.50;4913365;29;20079;-57
2023/08/02 04:09:06;;;;;;;5.55;3.03;;;;;;;12.10;100.00;99557.06;4913486;29;20103;-57
2023/08/02 04:11:33;;;;;;;9.80;3.35;;;;;;;12.13;100.00;99567.41;4913283;29;20059;-57
2023/08/02 04:14:00;;;;;;;9.18;3.20;;;;;;;12.18;100.00;99562.28;4913414;29;20083;-58
2023/08/02 04:16:26;;;;;;;9.65;3.17;;;;;;;12.16;100.00;99561.66;4913910;29;20139;-58
2023/08/02 04:18:53;;;;;;;10.73;3.25;;;;;;;12.21;100.00;99556.53;4913556;29;20119;-58
2023/08/02 04:21:19;;;;;;;6.20;3.22;;;;;;;12.17;100.00;99564.16;4913011;29;20052;-57
2023/08/02 04:23:49;;;;;;;13.10;3.88;;;;;;;12.20;100.00;99562.91;4913016;29;20048;-58
2023/08/02 04:26:16;;;;;;;8.57;3.03;;;;;;;12.16;100.00;99558.97;4913181;29;20048;-58
2023/08/02 04:28:44;;;;;;;8.57;3.80;;;;;;;12.11;100.00;99559.56;4912909;29;20564;-58
2023/08/02 04:31:13;;;;;;;7.85;3.22;;;;;;;12.12;100.00;99563.06;4913205;29;20516;-57
2023/08/02 04:33:40;;;;;;;8.95;3.40;;;;;;;12.20;100.00;99560.22;4912981;29;20048;-58
2023/08/02 04:36:07;;;;;;;5.72;3.10;;;;;;;12.17;100.00;99561.47;4913186;29;20111;-58
2023/08/02 04:38:34;;;;;;;6.28;3.20;;;;;;;12.10;100.00;99557.88;4913090;29;20048;-59
2023/08/02 04:41:00;;;;;;;7.78;3.40;;;;;;;12.13;100.00;99552.09;4914929;29;20059;-58
2023/08/02 04:43:27;;;;;;;6.82;3.30;;;;;;;12.17;100.00;99560.59;4916226;29;20056;-60
2023/08/02 04:45:53;;;;;;;8.18;3.53;;;;;;;12.15;100.00;99555.44;4916812;29;20048;-57
2023/08/02 04:48:20;;;;;;;12.82;4.47;;;;;;;12.15;100.00;99565.38;4916513;29;20044;-57
2023/08/02 04:50:46;;;;;;;7.72;3.35;;;;;;;12.16;100.00;99557.09;4916511;29;20064;-58
2023/08/02 04:53:13;;;;;;;8.02;3.50;;;;;;;12.14;100.00;99559.16;4916630;29;20052;-58
2023/08/02 04:55:44;;;;;;;12.82;3.20;;;;;;;12.09;100.00;99555.41;4916240;29;20465;-59
2023/08/02 04:58:11;;;;;;;5.70;3.15;;;;;;;12.07;100.00;99555.63;4915834;29;20081;-58
2023/08/02 05:00:37;;;;;;;5.78;3.10;;;;;;;12.14;100.00;99548.41;4915563;29;20116;-58
2023/08/02 05:03:04;;;;;;;7.05;3.13;;;;;;;12.20;100.00;99549.47;4916259;29;20087;-58
2023/08/02 05:05:32;;;;;;;6.53;2.88;;;;;;;12.21;100.00;99552.97;4916894;29;20048;-60
2023/08/02 05:07:59;;;;;;;6.55;2.85;;;;;;;12.26;100.00;99547.84;4916006;29;20040;-58
2023/08/02 05:10:26;;;;;;;6.32;3.20;;;;;;;12.21;100.00;99543.06;4916569;29;20052;-58
2023/08/02 05:12:53;;;;;;;8.07;3.25;;;;;;;12.16;100.00;99534.75;4916036;29;20056;-58
2023/08/02 05:15:20;;;;;;;8.27;2.85;;;;;;;12.19;100.00;99536.22;4915806;29;20048;-57
2023/08/02 05:17:46;;;;;;;9.68;3.05;;;;;;;12.25;100.00;99532.75;4916134;29;20052;-58
2023/08/02 05:20:14;;;;;;;10.57;2.58;;;;;;;12.35;100.00;99534.03;4916068;29;20465;-57
2023/08/02 05:22:40;;;;;;;9.63;3.38;;;;;;;12.43;100.00;99534.88;4915092;29;20572;-58
2023/08/02 05:25:08;;;;;;;8.30;2.75;;;;;;;12.36;100.00;99538.38;4915431;29;20146;-58
2023/08/02 05:27:35;;;;;;;9.85;3.08;;;;;;;12.33;100.00;99546.84;4915879;29;20052;-58
2023/08/02 05:30:01;;;;;;;10.32;2.95;;;;;;;12.36;100.00;99538.38;4898998;29;20108;-57
2023/08/02 05:32:28;;;;;;;9.63;3.10;;;;;;;12.44;100.00;99536.53;4915757;29;20071;-57
2023/08/02 05:34:55;;;;;;;10.98;2.90;;;;;;;12.44;100.00;99536.53;4916491;29;20059;-58
2023/08/02 05:37:22;;;;;;;7.18;2.67;;;;;;;12.45;100.00;99536.31;4915525;29;20477;-58
2023/08/02 05:39:48;;;;;;;6.80;2.70;;;;;;;12.55;100.00;99531.38;4915144;29;20048;-60
2023/08/02 05:42:15;;;;;;;9.63;3.40;;;;;;;12.72;100.00;99529.16;4915261;29;20469;-57
2023/08/02 05:44:41;;;;;;;4.57;2.10;;;;;;;12.78;100.00;99530.25;4898886;29;20060;-58
2023/08/02 05:47:09;;;;;;;5.88;3.20;;;;;;;12.83;100.00;99535.84;4914962;29;20115;-58
2023/08/02 05:49:35;;;;;;;6.15;2.70;;;;;;;12.85;100.00;99533.78;4915549;29;20492;-59
2023/08/02 05:52:02;;;;;;;8.07;2.40;;;;;;;12.83;100.00;99544.78;4914254;29;20048;-58
2023/08/02 05:54:28;;;;;;;8.25;3.17;;;;;;;12.98;100.00;99543.75;4914477;29;20111;-58
2023/08/02 05:56:55;;;;;;;4.65;2.35;;;;;;;12.97;100.00;99536.69;4899360;29;20105;-58
2023/08/02 05:59:22;;;;;;;6.05;2.30;;;;;;;13.03;100.00;99546.66;4914108;29;20056;-56
2023/08/02 06:01:48;;;;;;;6.95;2.50;;;;;;;13.18;100.00;99547.31;4914923;29;20389;-57
2023/08/02 06:04:15;;;;;;;8.55;2.17;;;;;;;13.12;100.00;99545.44;4915011;29;20131;-57
2023/08/02 06:06:46;;;;;;;6.15;2.35;;;;;;;13.08;100.00;99544.19;4904639;29;20051;-62
2023/08/02 06:09:15;;;;;;;9.23;2.58;;;;;;;13.22;100.00;99534.25;4889072;29;20063;-62
2023/08/02 06:11:42;;;;;;;6.72;2.45;;;;;;;13.25;100.00;99537.38;4904491;29;20452;-61
2023/08/02 06:14:18;;;;;;;8.25;3.13;;;;;;;13.30;100.00;99537.56;4915062;29;20055;-62
2023/08/02 06:16:45;;;;;;;10.70;2.53;;;;;;;13.46;100.00;99546.28;4913381;29;20051;-62
2023/08/02 06:19:11;;;;;;;7.00;2.63;;;;;;;13.58;100.00;99533.81;4913882;29;20055;-62
2023/08/02 06:21:38;;;;;;;5.50;2.10;;;;;;;13.64;100.00;99533.00;4914567;29;20052;-63
2023/08/02 06:24:06;;;;;;;9.73;2.47;;;;;;;13.64;100.00;99526.78;4914233;29;20515;-63
2023/08/02 06:26:33;;;;;;;8.07;2.33;;;;;;;13.62;100.00;99535.06;4913293;29;20423;-63
2023/08/02 06:29:00;;;;;;;7.05;2.58;;;;;;;13.60;100.00;99534.44;4913522;29;20515;-63
2023/08/02 06:31:29;;;;;;;6.43;2.30;;;;;;;13.51;100.00;99530.31;4914029;29;20119;-62
2023/08/02 06:33:57;;;;;;;9.38;2.85;;;;;;;13.62;100.00;99528.84;4914589;29;20080;-62
2023/08/02 06:36:24;;;;;;;8.05;2.22;;;;;;;13.74;100.00;99533.38;4913666;29;20056;-62
2023/08/02 06:39:02;;;;;;;8.82;2.40;;;;;;;13.85;100.00;99534.66;4903580;29;20048;-62
2023/08/02 06:41:29;;;;;;;5.75;2.47;;;;;;;13.90;100.00;99534.81;4903499;29;20501;-62
2023/08/02 06:43:58;;;;;;;7.07;2.25;;;;;;;14.07;100.00;99527.09;4904533;29;20048;-62
2023/08/02 06:46:51;;;;;;;5.50;2.25;;;;;;;14.16;100.00;99525.84;4901836;29;20047;-62
2023/08/02 06:49:41;;;;;;;5.95;1.85;;;;;;;14.34;100.00;99521.63;4803460;29;20495;-62
2023/08/02 06:52:08;;;;;;;10.20;2.53;;;;;;;14.33;100.00;99518.09;4806069;29;20500;-62
2023/08/02 06:54:34;;;;;;;6.03;2.75;;;;;;;14.33;100.00;99510.00;4807118;29;20056;-64
2023/08/02 06:57:01;;;;;;;5.65;2.78;;;;;;;14.43;100.00;99514.94;4818872;29;20137;-63
2023/08/02 06:59:28;;;;;;;7.40;2.30;;;;;;;14.54;100.00;99506.16;4819183;29;20050;-65
2023/08/02 07:01:56;;;;;;;9.13;2.38;;;;;;;14.60;100.00;99502.63;4819936;29;20050;-63
2023/08/02 07:04:23;;;;;;;9.43;2.78;;;;;;;14.73;100.00;99493.63;4818643;29;20119;-63
2023/08/02 07:06:52;;;;;;;11.25;2.85;;;;;;;14.85;100.00;99496.47;4818888;29;20133;-63
2023/08/02 07:09:22;;;;;;;8.27;2.70;;;;;;;14.98;100.00;99496.34;4818586;29;20058;-62
2023/08/02 07:11:52;;;;;;;5.45;2.00;;;;;;;15.02;100.00;99489.50;4819462;29;20057;-63
2023/08/02 07:14:26;;;;;;;5.65;2.38;;;;;;;15.17;100.00;99498.09;4819038;29;20054;-62
2023/08/02 07:16:55;;;;;;;8.05;2.28;;;;;;;15.36;100.00;99479.22;4818904;29;20055;-62
2023/08/02 07:19:21;;;;;;;10.80;2.72;;;;;;;15.62;100.00;99487.06;4818800;29;20137;-63
2023/08/02 07:21:57;;;;;;;8.88;3.30;;;;;;;15.64;100.00;99485.03;4818542;29;20481;-64
2023/08/02 07:24:33;;;;;;;5.95;2.25;;;;;;;15.75;100.00;99486.16;4818035;29;20061;-62
2023/08/02 07:27:45;;;;;;;6.43;1.95;;;;;;;15.89;100.00;99478.72;4888476;29;20066;-63
2023/08/02 07:29:56;;;;;;;6.60;2.10;;;;;;;16.28;100.00;99482.00;4905316;29;20074;-62
2023/08/02 07:32:26;;;;;;;5.20;1.80;;;;;;;16.64;100.00;99468.41;4912167;29;20050;-64
2023/08/02 07:34:59;;;;;;;6.03;1.85;;;;;;;17.02;100.00;99480.72;4911933;29;20051;-64
2023/08/02 07:37:36;;;;;;;5.20;2.10;;;;;;;17.46;100.00;99481.28;4912925;29;20059;-64
2023/08/02 07:40:03;;;;;;;6.57;2.17;;;;;;;17.76;100.00;99481.16;4912978;29;20056;-64
2023/08/02 07:42:41;;;;;;;7.88;1.80;;;;;;;17.99;100.00;99485.69;4913092;29;20064;-64
2023/08/02 07:45:14;;;;;;;4.72;1.63;;;;;;;18.30;100.00;99483.66;4911607;29;20056;-64
2023/08/02 07:47:50;;;;;;;7.45;2.30;;;;;;;18.45;100.00;99477.72;4912583;29;20059;-63
2023/08/02 07:50:16;;;;;;;6.18;1.95;;;;;;;18.56;100.00;99468.69;4901704;29;20048;-62
2023/08/02 07:52:43;;;;;;;13.63;2.28;;;;;;;18.93;100.00;99469.09;4913138;29;20544;-63
2023/08/02 07:55:11;;;;;;;10.05;1.92;;;;;;;19.01;100.00;99468.69;4912755;29;20417;-62
2023/08/02 07:57:37;;;;;;;5.63;1.90;;;;;;;19.24;100.00;99469.59;4913190;29;20044;-63
2023/08/02 08:00:05;;;;;;;6.13;1.85;;;;;;;19.46;100.00;99473.19;4913339;29;20464;-62
2023/08/02 08:02:32;;;;;;;7.97;2.30;;;;;;;19.18;100.00;99465.16;4911977;29;20055;-63
2023/08/02 08:05:00;;;;;;;9.48;1.80;;;;;;;19.16;100.00;99470.81;4912991;29;20115;-63
2023/08/02 08:07:27;;;;;;;9.15;2.17;;;;;;;19.19;100.00;99472.22;4913591;29;20062;-65
2023/08/02 08:09:56;;;;;;;8.40;1.52;;;;;;;19.27;100.00;99479.97;4913258;29;20044;-63
2023/08/02 08:12:27;;;;;;;8.17;1.67;;;;;;;19.61;100.00;99475.31;4913801;29;20104;-63
2023/08/02 08:14:54;;;;;;;6.72;1.85;;;;;;;19.58;100.00;99473.09;4913964;29;20360;-64
2023/08/02 08:17:21;;;;;;;9.27;1.90;;;;;;;19.87;100.00;99479.25;4917162;29;20555;-63
2023/08/02 08:19:49;;;;;;;8.40;2.35;;;;;;;19.83;89.01;99469.97;4914106;29;20054;-62
2023/08/02 08:22:18;;;;;;;7.15;1.70;;;;;;;19.80;92.00;99469.63;4916739;29;20424;-63
2023/08/02 08:24:49;;;;;;;3.93;1.57;;;;;;;20.04;89.66;99472.91;4915686;29;20048;-64
2023/08/02 08:27:17;;;;;;;5.80;1.90;;;;;;;20.22;90.09;99469.06;4915475;29;20057;-63
2023/08/02 08:29:44;;;;;;;5.90;1.67;;;;;;;20.36;90.50;99475.75;4914897;29;20048;-63
2023/08/02 08:32:11;;;;;;;6.38;1.70;;;;;;;20.64;85.95;99461.94;4915447;29;20499;-63
2023/08/02 08:34:42;;;;;;;5.90;1.98;;;;;;;20.92;82.55;99460.00;4916119;29;20139;-65
2023/08/02 08:37:09;;;;;;;8.43;2.00;;;;;;;20.79;77.38;99455.78;4915199;29;20055;-63
2023/08/02 08:39:38;;;;;;;4.88;1.50;;;;;;;21.19;80.05;99448.25;4902879;29;20449;-63
2023/08/02 08:42:06;;;;;;;7.75;1.75;;;;;;;21.43;73.87;99451.44;4915684;29;20055;-62
2023/08/02 08:44:37;;;;;;;5.55;1.58;;;;;;;21.64;74.30;99442.28;4915280;29;20151;-63
2023/08/02 08:47:10;;;;;;;6.03;1.65;;;;;;;21.98;70.23;99441.91;4915371;29;20419;-63
2023/08/02 08:49:36;;;;;;;4.50;1.50;;;;;;;22.05;67.54;99426.13;4915021;29;20048;-62
2023/08/02 08:52:07;;;;;;;5.28;2.13;;;;;;;22.35;67.27;99424.53;4915730;29;20056;-62
2023/08/02 08:54:37;;;;;;;5.55;1.38;;;;;;;22.28;63.12;99414.69;4914750;29;20544;-64
2023/08/02 08:57:07;;;;;;;3.25;1.42;;;;;;;22.69;62.83;99414.78;4914961;29;20169;-62
2023/08/02 08:59:36;;;;;;;8.80;1.60;;;;;;;22.51;62.30;99416.13;4915141;29;20071;-63
2023/08/02 09:02:05;;;;;;;7.13;1.77;;;;;;;22.49;64.33;99420.22;4904779;29;20052;-63
2023/08/02 09:04:34;;;;;;;3.67;1.27;;;;;;;22.55;60.21;99413.69;4914533;29;20051;-63
2023/08/02 09:07:01;;;;;;;4.00;1.27;;;;;;;22.18;58.66;99411.94;4915227;29;20082;-63
2023/08/02 09:09:28;;;;;;;4.28;1.58;;;;;;;22.35;59.61;99402.69;4915722;29;20511;-63
2023/08/02 09:11:55;;;;;;;10.02;1.58;;;;;;;22.75;57.83;99397.31;4907306;29;20052;-63
2023/08/02 09:14:24;;;;;;;4.85;1.42;;;;;;;22.55;56.81;99394.56;4880198;29;20055;-62
2023/08/02 09:16:56;;;;;;;3.55;1.40;;;;;;;22.47;57.13;99395.09;4914993;29;20477;-63
2023/08/02 09:19:43;;;;;;;6.30;1.30;;;;;;;22.59;54.88;99397.56;4914319;29;20047;-64
2023/08/02 09:22:15;;;;;;;9.00;1.48;;;;;;;22.03;57.47;99392.78;4914971;29;20048;-63
2023/08/02 09:24:43;;;;;;;;;;;;;;;21.59;57.17;99401.28;4914490;29;20103;-62
2023/08/02 09:27:20;;;;;;;6.60;1.70;;;;;;;21.25;59.57;99396.22;4913631;29;19927;-64
2023/08/02 09:29:56;;;;;;;7.30;1.40;;;;;;;21.48;60.75;99386.78;4914954;29;20048;-62
2023/08/02 09:32:24;;;;;;;5.57;1.63;;;;;;;21.93;59.67;99384.56;4914885;29;20048;-62
2023/08/02 09:34:57;;;;;;;5.28;1.63;;;;;;;22.66;57.41;99388.00;4914372;29;20062;-63
2023/08/02 09:37:48;;;;;;;2.40;1.15;;;;;;;22.84;57.38;99372.94;4914049;29;20043;-62
2023/08/02 09:40:15;;;;;;;4.68;1.58;;;;;;;23.32;56.17;99372.63;4914498;29;20052;-63
2023/08/02 09:42:45;;;;;;;4.07;1.67;;;;;;;23.01;54.72;99372.66;4898009;29;20044;-63
2023/08/02 09:45:13;;;;;;;6.55;1.75;;;;;;;23.00;54.34;99369.13;4914359;29;20048;-63
2023/08/02 09:47:50;;;;;;;5.80;1.83;;;;;;;23.25;54.67;99368.28;4912932;29;20060;-62
2023/08/02 09:50:18;;;;;;;4.30;1.83;;;;;;;22.72;54.96;99362.31;4915185;29;20059;-63
2023/08/02 09:52:45;;;;;;;4.75;1.85;;;;;;;22.06;56.69;99359.47;4914742;29;20532;-63
2023/08/02 09:55:12;;;;;;;3.72;1.60;;;;;;;22.07;58.63;99350.19;4913988;29;20088;-63
2023/08/02 09:57:44;;;;;;;4.55;1.70;;;;;;;22.48;57.90;99350.28;4914579;29;20048;-64
2023/08/02 10:00:11;;;;;;;4.38;1.27;;;;;;;22.39;57.47;99344.47;4914019;29;20115;-63
2023/08/02 10:02:45;;;;;;;2.53;1.23;;;;;;;22.43;57.10;99331.09;4914079;29;20182;-62
2023/08/02 10:05:13;;;;;;;7.07;2.00;;;;;;;21.66;60.32;99341.00;4883843;29;20079;-63
2023/08/02 10:07:43;;;;;;;7.50;1.85;;;;;;;21.40;62.73;99342.81;4894926;29;20049;-63
2023/08/02 10:10:25;;;;;;;5.10;1.60;;;;;;;21.79;62.61;99329.59;4894620;29;20497;-62
2023/08/02 10:12:56;;;;;;;4.30;1.50;;;;;;;21.77;64.39;99334.50;4895200;29;20461;-62
2023/08/02 10:15:24;;;;;;;4.93;1.80;;;;;;;21.53;65.66;99337.72;4894677;29;20045;-63
2023/08/02 10:17:58;;;;;;;2.63;1.52;;;;;;;21.43;67.01;99323.19;4894133;29;20401;-63
2023/08/02 10:20:25;;;;;;;3.13;1.30;;;;;;;21.20;69.21;99321.72;4895785;29;20425;-63
2023/08/02 10:22:54;;;;;;;2.08;1.00;;;;;;;20.38;76.31;99321.88;4895631;29;20127;-63
2023/08/02 10:25:22;;;;;;;3.35;1.10;;;;;;;20.32;82.68;99324.84;4895517;29;20048;-62
2023/08/02 10:27:49;;;;;;;4.60;1.33;;;;;;;20.79;75.72;99327.69;4894840;29;20485;-62
2023/08/02 10:30:17;;;;;;;3.53;1.10;;;;;;;21.26;73.31;99328.84;4894820;29;20449;-64
2023/08/02 10:32:43;;;;;;;2.10;1.05;;;;;;;20.76;76.61;99317.31;4894546;29;20049;-63
2023/08/02 10:35:10;;;;;;;3.30;1.17;;;;;;;20.74;80.66;99313.22;4894709;29;20612;-64
2023/08/02 10:37:54;;;;;;;2.78;1.33;;;;;;;21.05;77.18;99314.25;4892582;29;20057;-63
2023/08/02 10:40:22;;;;;;;1.88;1.15;;;;;;;20.68;81.14;99325.97;4894825;29;20052;-62
2023/08/02 10:43:06;;;;;;;6.07;1.50;;;;;;;20.27;87.15;99313.88;4894584;29;20053;-63
2023/08/02 10:45:34;;;;;;;3.28;1.48;;;;;;;20.31;92.07;99302.22;4894833;29;20052;-62
2023/08/02 10:48:25;;;;;;;3.70;1.52;;;;;;;20.20;89.94;99298.56;4894355;29;20143;-63
2023/08/02 10:50:53;;;;;;;5.43;1.30;;;;;;;20.31;90.65;99287.78;4893869;29;20055;-63
2023/08/02 10:53:22;;;;;;;3.45;1.40;;;;;;;20.62;86.15;99295.13;4894432;29;20128;-63
2023/08/02 10:56:10;;;;;;;4.47;1.17;;;;;;;20.72;87.40;99288.94;4892071;29;20051;-62
2023/08/02 10:58:47;;;;;;;1.92;1.20;;;;;;;20.80;86.04;99293.06;4894348;29;20051;-63
2023/08/02 11:01:16;;;;;;;3.15;1.27;;;;;;;20.39;88.39;99290.84;4894477;29;20061;-62
2023/08/02 11:03:43;;;;;;;5.82;1.30;;;;;;;20.02;94.29;99279.09;4901616;29;20074;-62
2023/08/02 11:06:25;;;;;;;2.47;1.45;;;;;;;19.88;96.19;99271.34;4913040;29;20058;-62
2023/08/02 11:08:52;;;;;;;2.95;1.40;;;;;;;20.23;94.93;99266.47;4913395;29;20130;-63
2023/08/02 11:11:31;;;;;;;9.65;1.58;;;;;;;20.17;95.90;99271.03;4912938;29;20051;-62
2023/08/02 11:13:58;;;;;;;6.65;1.73;;;;;;;20.19;98.11;99269.72;4913366;29;20050;-62
2023/08/02 11:16:26;;;;;;;3.95;1.63;;;;;;;19.86;100.00;99246.25;4912913;29;20048;-63
2023/08/02 11:19:06;;;;;;;4.60;1.65;;;;;;;19.71;100.00;99257.00;4911793;29;20242;-64
2023/08/02 11:21:34;;;;;;;4.88;2.15;;;;;;;19.32;100.00;99248.94;4912939;29;20167;-63
2023/08/02 11:24:01;;;;;;;7.70;1.98;;;;;;;19.12;100.00;99243.25;4913122;29;20056;-62
2023/08/02 11:26:28;;;;;;;4.63;2.20;;;;;;;19.20;100.00;99240.06;4913252;29;20496;-61
2023/08/02 11:29:14;;;;;;;7.85;2.22;;;;;;;19.09;100.00;99230.97;4912793;29;20055;-62
2023/08/02 11:31:41;;;;;;;4.63;1.60;;;;;;;19.07;100.00;99224.13;4912980;29;20406;-62
2023/08/02 11:34:18;;;;;;;6.78;1.80;;;;;;;18.96;100.00;99212.31;4913104;29;20056;-59